aviador You're here:

CYVO Decoded Metar

VAL D'OR in QC, CANADA
Report Time2017-08-24 02:00:00
UTC Time2017-08-24 03:07:36
Flight Rules Old
Wind290° at 04 kt
W.Decomp.*RWY 36: 2.2 kt HW 3.3 kt LCW
W.Rank290° ranks 17
Current wind is below 290° avg. (5.9)
Visibility9999 m
Phenomena:N/A
Clouds:Broken 016 Hf
Broken 021 Hf
Overcast 041 Hf
Expected CloudBase > 400 ft AGL from Temp-Dew spread
Ceiling1,600 ft
Temp11°C (ISA -2)
Dew Point10°C (94% RH)
AAT9.6°C
QNH1010 hPa
Density Alt1,165 ft
Elevation1,106 ft
Report Wrong Elevation
Raw Report
CYVO 240200Z 29004KT 260V330 15SM BKN016 BKN021 OVC041 11/10 A2982
RMK SF5SC2SC1 LAST STFD OBS/NEXT 241000 UTC SLP110=

Extra information for CYVO:More info

Metar Taf Metar & Taf Last 4 Metars F.Rules Stats Wind Profile Meteogram Temp Stats Airport Information Weather charts Add Link Nearby VenuesMetar ALERT Operation Metar Decoded Social comments